Sweeney, South Dakota
Current Conditions -  °F | °C
As of 4:53 PM on Thursday 27 Nov 2014 (Local Time) from KPIR Reporting Station
Overcast Overcast  
Wind Chill: -11°   Ceiling: 11000
Heat Index: -4°   Visibility: 10mi
Dew Point: -9°   Wind: 14mph
Humidity: 69%   Direction: 130°SE
Pressure: 30"   Gusts: NA
Location:  43.909°N, 100.128°W
Report Text: KPIR 272253Z AUTO 13012KT 10SM OVC110 M04/M09 A3000 RMK AO2 SLP188 T10441094
Loading
Personal Weather Stations






























Interactive Weather Map New forecast layout! Learn more

10-Day Weather Forecast

Advertisements
Track Severe Weather on mobile